Time;durP1;ratioP1;P1;durP2;ratioP2;P2;SDS_P1;SDS_P2;PMS_P1;PMS_P2;Temp;Humidity;BMP_temperature;BMP_pressure;BME280_temperature;BME280_humidity;BME280_pressure;Samples;Min_cycle;Max_cycle;Signal;HPM_P1;HPM_P2
2023/06/17 00:02:17;;;;;;;;;;;;;;;;;;5069041;28;20009;-65
2023/06/17 00:04:43;;;;;;;;;;;;;;;;;;5071629;28;20031;-64
2023/06/17 00:07:10;;;;;;;;;;;;;;;;;;5071447;28;20435;-64
2023/06/17 00:09:36;;;;;;;;;;;;;;;;;;5068451;28;19916;-64
2023/06/17 00:12:02;;;;;;;;;;;;;;;;;;5068843;28;19956;-64
2023/06/17 00:14:28;;;;;;;;;;;;;;;;;;5070505;28;20327;-64
2023/06/17 00:16:54;;;;;;;;;;;;;;;;;;5069444;28;19964;-65
2023/06/17 00:19:20;;;;;;;;;;;;;;;;;;5063049;28;19948;-64
2023/06/17 00:21:49;;;;;;;;;;;;;;;;;;5047497;28;20360;-65
2023/06/17 00:24:15;;;;;;;;;;;;;;;;;;5066344;28;19917;-64
2023/06/17 00:26:41;;;;;;;;;;;;;;;;;;5066561;28;19920;-64
2023/06/17 00:29:07;;;;;;;;;;;;;;;;;;5071218;28;20339;-64
2023/06/17 00:31:33;;;;;;;;;;;;;;;;;;5067191;28;19955;-63
2023/06/17 00:33:59;;;;;;;;;;;;;;;;;;5069426;28;19949;-64
2023/06/17 00:36:25;;;;;;;;;;;;;;;;;;5070680;28;19917;-64
2023/06/17 00:38:50;;;;;;;;;;;;;;;;;;5068796;28;19971;-64
2023/06/17 00:41:16;;;;;;;;;;;;;;;;;;5071238;28;20351;-64
2023/06/17 00:43:42;;;;;;;;;;;;;;;;;;5064140;28;19917;-64
2023/06/17 00:46:08;;;;;;;;;;;;;;;;;;5070862;28;20327;-64
2023/06/17 00:48:34;;;;;;;;;;;;;;;;;;5070521;28;19954;-64
2023/06/17 00:51:01;;;;;;;;;;;;;;;;;;5074925;28;20009;-64
2023/06/17 00:53:27;;;;;;;;;;;;;;;;;;5072795;28;19917;-64
2023/06/17 00:55:53;;;;;;;;;;;;;;;;;;5061751;28;19935;-65
2023/06/17 00:58:19;;;;;;;;;;;;;;;;;;5075468;28;19909;-65
2023/06/17 01:00:45;;;;;;;;;;;;;;;;;;5072722;28;19990;-64
2023/06/17 01:03:11;;;;;;;;;;;;;;;;;;5075540;28;19958;-64
2023/06/17 01:05:38;;;;;;;;;;;;;;;;;;5074591;28;19916;-64
2023/06/17 01:08:04;;;;;;;;;;;;;;;;;;5074435;28;20388;-64
2023/06/17 01:10:30;;;;;;;;;;;;;;;;;;5072913;28;19999;-65
2023/06/17 01:12:56;;;;;;;;;;;;;;;;;;5074447;28;20041;-65
2023/06/17 01:15:22;;;;;;;;;;;;;;;;;;5074960;28;19958;-65
2023/06/17 01:17:52;;;;;;;;;;;;;;;;;;5073215;28;20014;-65
2023/06/17 01:20:18;;;;;;;;;;;;;;;;;;5084710;28;20000;-65
2023/06/17 01:22:44;;;;;;;;;;;;;;;;;;5075294;28;20014;-64
2023/06/17 01:25:13;;;;;;;;;;;;;;;;;;5067201;28;19923;-64
2023/06/17 01:27:39;;;;;;;;;;;;;;;;;;5054583;28;19917;-64
2023/06/17 01:30:04;;;;;;;;;;;;;;;;;;5062277;28;19909;-64
2023/06/17 01:32:30;;;;;;;;;;;;;;;;;;5079098;28;20011;-64
2023/06/17 01:34:57;;;;;;;;;;;;;;;;;;5072912;28;20382;-65
2023/06/17 01:37:23;;;;;;;;;;;;;;;;;;5073703;28;19916;-65
2023/06/17 01:39:48;;;;;;;;;;;;;;;;;;5067535;28;20441;-65
2023/06/17 01:42:14;;;;;;;;;;;;;;;;;;5067998;28;19917;-65
2023/06/17 01:44:40;;;;;;;;;;;;;;;;;;5074677;28;20284;-65
2023/06/17 01:47:09;;;;;;;;;;;;;;;;;;5073715;28;20336;-65
2023/06/17 01:49:35;;;;;;;;;;;;;;;;;;5073872;28;19913;-65
2023/06/17 01:52:01;;;;;;;;;;;;;;;;;;5068059;28;19964;-65
2023/06/17 01:54:27;;;;;;;;;;;;;;;;;;5060315;28;19916;-65
2023/06/17 01:56:53;;;;;;;;;;;;;;;;;;5071084;28;19917;-65
2023/06/17 01:59:19;;;;;;;;;;;;;;;;;;5071388;28;19963;-65
2023/06/17 02:01:45;;;;;;;;;;;;;;;;;;5068329;28;20444;-65
2023/06/17 02:04:11;;;;;;;;;;;;;;;;;;5069455;28;19919;-64
2023/06/17 02:06:37;;;;;;;;;;;;;;;;;;5068485;28;19913;-64
2023/06/17 02:09:03;;;;;;;;;;;;;;;;;;5070008;28;19912;-64
2023/06/17 02:11:29;;;;;;;;;;;;;;;;;;5070920;28;19965;-64
2023/06/17 02:13:55;;;;;;;;;;;;;;;;;;5063962;28;20358;-64
2023/06/17 02:16:21;;;;;;;;;;;;;;;;;;5073660;28;20007;-64
2023/06/17 02:18:48;;;;;;;;;;;;;;;;;;5070847;28;19916;-64
2023/06/17 02:21:14;;;;;;;;;;;;;;;;;;5071987;28;19924;-64
2023/06/17 02:23:40;;;;;;;;;;;;;;;;;;5060725;28;19932;-65
2023/06/17 02:26:06;;;;;;;;;;;;;;;;;;5053779;28;20357;-65
2023/06/17 02:28:32;;;;;;;;;;;;;;;;;;5070045;28;20001;-65
2023/06/17 02:30:58;;;;;;;;;;;;;;;;;;5064007;28;20086;-65
2023/06/17 02:33:25;;;;;;;;;;;;;;;;;;5064711;28;19987;-65
2023/06/17 02:35:50;;;;;;;;;;;;;;;;;;5072165;28;19997;-65
2023/06/17 02:38:17;;;;;;;;;;;;;;;;;;5070571;28;19979;-65
2023/06/17 02:40:43;;;;;;;;;;;;;;;;;;5071124;28;20023;-64
2023/06/17 02:43:09;;;;;;;;;;;;;;;;;;5072191;28;19959;-65
2023/06/17 02:45:35;;;;;;;;;;;;;;;;;;5066893;28;19965;-65
2023/06/17 02:48:01;;;;;;;;;;;;;;;;;;5085386;28;20015;-65
2023/06/17 02:50:27;;;;;;;;;;;;;;;;;;5093372;28;19912;-65
2023/06/17 02:52:55;;;;;;;;;;;;;;;;;;5093572;28;19905;-64
2023/06/17 02:55:21;;;;;;;;;;;;;;;;;;5092814;28;19912;-63
2023/06/17 02:57:47;;;;;;;;;;;;;;;;;;5075414;28;19970;-64
2023/06/17 03:00:13;;;;;;;;;;;;;;;;;;5067684;28;20400;-64
2023/06/17 03:02:39;;;;;;;;;;;;;;;;;;5071391;28;20687;-64
2023/06/17 03:05:06;;;;;;;;;;;;;;;;;;5071852;28;20038;-64
2023/06/17 03:07:35;;;;;;;;;;;;;;;;;;5071893;28;20346;-64
2023/06/17 03:10:01;;;;;;;;;;;;;;;;;;5069359;28;19927;-64
2023/06/17 03:12:27;;;;;;;;;;;;;;;;;;5068256;28;19916;-65
2023/06/17 03:14:53;;;;;;;;;;;;;;;;;;5066210;28;20411;-65
2023/06/17 03:17:21;;;;;;;;;;;;;;;;;;5069899;28;19956;-65
2023/06/17 03:19:47;;;;;;;;;;;;;;;;;;5070161;28;20007;-65
2023/06/17 03:22:13;;;;;;;;;;;;;;;;;;5070074;28;20019;-64
2023/06/17 03:24:39;;;;;;;;;;;;;;;;;;5070981;28;19912;-64
2023/06/17 03:27:05;;;;;;;;;;;;;;;;;;5069687;28;19919;-64
2023/06/17 03:29:31;;;;;;;;;;;;;;;;;;5066859;28;19999;-63
2023/06/17 03:31:57;;;;;;;;;;;;;;;;;;5067976;28;19988;-63
2023/06/17 03:34:24;;;;;;;;;;;;;;;;;;5080815;28;20297;-63
2023/06/17 03:36:50;;;;;;;;;;;;;;;;;;5070781;28;19978;-63
2023/06/17 03:39:16;;;;;;;;;;;;;;;;;;5072088;28;20284;-64
2023/06/17 03:41:42;;;;;;;;;;;;;;;;;;5067697;28;19963;-64
2023/06/17 03:44:08;;;;;;;;;;;;;;;;;;5067917;28;20014;-64
2023/06/17 03:46:33;;;;;;;;;;;;;;;;;;5065552;28;19965;-63
2023/06/17 03:48:59;;;;;;;;;;;;;;;;;;5086415;28;19909;-64
2023/06/17 03:51:25;;;;;;;;;;;;;;;;;;5068842;28;19912;-63
2023/06/17 03:53:51;;;;;;;;;;;;;;;;;;5061622;28;20360;-64
2023/06/17 03:56:17;;;;;;;;;;;;;;;;;;5075547;28;20007;-64
2023/06/17 03:58:43;;;;;;;;;;;;;;;;;;5071784;28;20329;-64
2023/06/17 04:01:12;;;;;;;;;;;;;;;;;;5071422;28;19912;-64
2023/06/17 04:03:38;;;;;;;;;;;;;;;;;;5064130;28;19955;-64
2023/06/17 04:06:04;;;;;;;;;;;;;;;;;;5065081;28;19963;-64
2023/06/17 04:08:32;;;;;;;;;;;;;;;;;;5066566;28;19916;-63
2023/06/17 04:10:58;;;;;;;;;;;;;;;;;;5072849;28;19916;-63
2023/06/17 04:13:24;;;;;;;;;;;;;;;;;;5066179;28;19952;-63
2023/06/17 04:15:50;;;;;;;;;;;;;;;;;;5068406;28;20362;-63
2023/06/17 04:18:16;;;;;;;;;;;;;;;;;;5058513;28;19912;-64
2023/06/17 04:20:44;;;;;;;;;;;;;;;;;;5062473;28;19912;-63
2023/06/17 04:23:10;;;;;;;;;;;;;;;;;;5053684;28;20046;-63
2023/06/17 04:25:36;;;;;;;;;;;;;;;;;;5070650;28;20351;-63
2023/06/17 04:28:02;;;;;;;;;;;;;;;;;;5061429;28;19923;-64
2023/06/17 04:30:28;;;;;;;;;;;;;;;;;;5067098;28;19955;-63
2023/06/17 04:32:55;;;;;;;;;;;;;;;;;;5062754;28;20272;-63
2023/06/17 04:35:21;;;;;;;;;;;;;;;;;;5073338;28;19927;-63
2023/06/17 04:37:53;;;;;;;;;;;;;;;;;;5072531;28;19916;-63
2023/06/17 04:40:19;;;;;;;;;;;;;;;;;;5077044;28;20071;-63
2023/06/17 04:42:46;;;;;;;;;;;;;;;;;;5076493;28;20482;-63
2023/06/17 04:45:12;;;;;;;;;;;;;;;;;;5069814;28;19970;-63
2023/06/17 04:47:37;;;;;;;;;;;;;;;;;;5083964;28;19955;-63
2023/06/17 04:50:03;;;;;;;;;;;;;;;;;;5097737;28;20011;-63
2023/06/17 04:52:31;;;;;;;;;;;;;;;;;;5098023;28;19912;-64
2023/06/17 04:54:56;;;;;;;;;;;;;;;;;;5078534;28;20486;-64
2023/06/17 04:57:22;;;;;;;;;;;;;;;;;;5077541;28;20007;-64
2023/06/17 04:59:48;;;;;;;;;;;;;;;;;;5073014;28;19922;-64
2023/06/17 05:02:14;;;;;;;;;;;;;;;;;;5074134;28;19986;-64
2023/06/17 05:04:40;;;;;;;;;;;;;;;;;;5073088;28;19927;-64
2023/06/17 05:07:06;;;;;;;;;;;;;;;;;;5067377;28;19912;-64
2023/06/17 05:09:32;;;;;;;;;;;;;;;;;;5072366;28;20288;-63
2023/06/17 05:11:58;;;;;;;;;;;;;;;;;;5070740;28;19943;-64
2023/06/17 05:14:24;;;;;;;;;;;;;;;;;;5073362;28;19916;-63
2023/06/17 05:16:50;;;;;;;;;;;;;;;;;;5078321;28;19963;-64
2023/06/17 05:19:16;;;;;;;;;;;;;;;;;;5077315;28;19991;-64
2023/06/17 05:21:42;;;;;;;;;;;;;;;;;;5062873;28;20341;-64
2023/06/17 05:24:08;;;;;;;;;;;;;;;;;;5065674;28;19967;-63
2023/06/17 05:26:34;;;;;;;;;;;;;;;;;;5059058;28;19999;-64
2023/06/17 05:29:00;;;;;;;;;;;;;;;;;;5066693;28;19921;-64
2023/06/17 05:31:26;;;;;;;;;;;;;;;;;;5074424;28;20338;-64
2023/06/17 05:33:52;;;;;;;;;;;;;;;;;;5064681;28;19999;-64
2023/06/17 05:36:18;;;;;;;;;;;;;;;;;;5063832;28;19952;-64
2023/06/17 05:38:44;;;;;;;;;;;;;;;;;;5053980;28;19993;-64
2023/06/17 05:41:10;;;;;;;;;;;;;;;;;;5055271;28;19917;-63
2023/06/17 05:43:36;;;;;;;;;;;;;;;;;;5068356;28;20356;-64
2023/06/17 05:46:02;;;;;;;;;;;;;;;;;;5061943;28;19966;-64
2023/06/17 05:48:28;;;;;;;;;;;;;;;;;;5058257;28;19927;-64
2023/06/17 05:50:54;;;;;;;;;;;;;;;;;;5071224;28;19959;-64
2023/06/17 05:53:20;;;;;;;;;;;;;;;;;;5068264;28;19923;-64
2023/06/17 05:55:46;;;;;;;;;;;;;;;;;;5071528;28;19919;-64
2023/06/17 05:58:12;;;;;;;;;;;;;;;;;;5070740;28;19951;-64
2023/06/17 06:00:37;;;;;;;;;;;;;;;;;;5073153;28;20288;-64
2023/06/17 06:03:03;;;;;;;;;;;;;;;;;;5074488;28;19912;-64
2023/06/17 06:05:29;;;;;;;;;;;;;;;;;;5073439;28;19930;-64
2023/06/17 06:07:55;;;;;;;;;;;;;;;;;;5072738;28;19963;-65
2023/06/17 06:10:21;;;;;;;;;;;;;;;;;;5069160;28;19923;-64
2023/06/17 06:12:49;;;;;;;;;;;;;;;;;;5071228;28;20376;-63
2023/06/17 06:15:15;;;;;;;;;;;;;;;;;;5070987;28;19917;-63
2023/06/17 06:17:41;;;;;;;;;;;;;;;;;;5051307;28;20494;-65
2023/06/17 06:20:07;;;;;;;;;;;;;;;;;;5071007;28;19913;-65
2023/06/17 06:22:32;;;;;;;;;;;;;;;;;;5070876;28;20011;-64
2023/06/17 06:24:58;;;;;;;;;;;;;;;;;;5062365;28;20380;-64
2023/06/17 06:27:24;;;;;;;;;;;;;;;;;;5080336;28;20396;-65
2023/06/17 06:29:51;;;;;;;;;;;;;;;;;;5073112;28;19917;-64
2023/06/17 06:32:16;;;;;;;;;;;;;;;;;;5073318;28;20417;-64
2023/06/17 06:34:45;;;;;;;;;;;;;;;;;;5069723;28;19913;-64
2023/06/17 06:37:11;;;;;;;;;;;;;;;;;;5072812;28;19920;-64
2023/06/17 06:39:37;;;;;;;;;;;;;;;;;;5071888;28;20408;-64
2023/06/17 06:42:03;;;;;;;;;;;;;;;;;;5067368;28;19999;-64
2023/06/17 06:44:28;;;;;;;;;;;;;;;;;;5070397;28;19939;-64
2023/06/17 06:46:55;;;;;;;;;;;;;;;;;;5069887;28;20004;-64
2023/06/17 06:49:22;;;;;;;;;;;;;;;;;;5070154;28;19917;-64
2023/06/17 06:51:48;;;;;;;;;;;;;;;;;;5072462;28;19920;-64
2023/06/17 06:54:14;;;;;;;;;;;;;;;;;;5071936;28;20336;-64
2023/06/17 06:56:39;;;;;;;;;;;;;;;;;;5070213;28;19995;-65
2023/06/17 06:59:05;;;;;;;;;;;;;;;;;;5066404;28;19916;-65
2023/06/17 07:01:31;;;;;;;;;;;;;;;;;;5069418;28;19946;-66
2023/06/17 07:03:57;;;;;;;;;;;;;;;;;;5063018;28;19955;-65
2023/06/17 07:06:23;;;;;;;;;;;;;;;;;;5069843;28;20279;-65
2023/06/17 07:08:49;;;;;;;;;;;;;;;;;;5067266;28;19913;-65
2023/06/17 07:11:15;;;;;;;;;;;;;;;;;;5060242;28;19956;-65
2023/06/17 07:13:41;;;;;;;;;;;;;;;;;;5067196;28;19920;-65
2023/06/17 07:16:07;;;;;;;;;;;;;;;;;;5070248;28;20361;-65
2023/06/17 07:18:33;;;;;;;;;;;;;;;;;;5072054;28;19915;-65
2023/06/17 07:20:58;;;;;;;;;;;;;;;;;;5064827;28;19917;-65
2023/06/17 07:23:25;;;;;;;;;;;;;;;;;;5062052;28;19920;-65
2023/06/17 07:25:50;;;;;;;;;;;;;;;;;;5064255;28;20397;-66
2023/06/17 07:28:17;;;;;;;;;;;;;;;;;;5066249;28;19912;-65
2023/06/17 07:30:43;;;;;;;;;;;;;;;;;;5059777;28;19923;-65
2023/06/17 07:33:09;;;;;;;;;;;;;;;;;;5076773;28;19916;-66
2023/06/17 07:35:35;;;;;;;;;;;;;;;;;;5065608;28;19963;-65
2023/06/17 07:38:01;;;;;;;;;;;;;;;;;;5069821;28;19947;-65
2023/06/17 07:40:26;;;;;;;;;;;;;;;;;;5068369;28;19952;-65
2023/06/17 07:42:52;;;;;;;;;;;;;;;;;;5067773;28;19916;-65
2023/06/17 07:45:18;;;;;;;;;;;;;;;;;;5062109;28;19924;-65
2023/06/17 07:47:44;;;;;;;;;;;;;;;;;;5062224;28;20391;-65
2023/06/17 07:50:10;;;;;;;;;;;;;;;;;;5062763;28;20018;-65
2023/06/17 07:52:36;;;;;;;;;;;;;;;;;;5066456;28;20057;-64
2023/06/17 07:55:02;;;;;;;;;;;;;;;;;;5062963;28;20359;-66
2023/06/17 07:57:28;;;;;;;;;;;;;;;;;;5064460;28;20303;-65
2023/06/17 07:59:54;;;;;;;;;;;;;;;;;;5062388;28;19961;-64
2023/06/17 08:02:21;;;;;;;;;;;;;;;;;;5063942;28;20396;-64
2023/06/17 08:04:47;;;;;;;;;;;;;;;;;;5061834;28;20368;-64
2023/06/17 08:07:13;;;;;;;;;;;;;;;;;;5061285;28;19970;-65
2023/06/17 08:09:39;;;;;;;;;;;;;;;;;;5064836;28;20019;-64
2023/06/17 08:12:05;;;;;;;;;;;;;;;;;;5058809;28;19921;-65
2023/06/17 08:14:31;;;;;;;;;;;;;;;;;;5063421;28;19976;-64
2023/06/17 08:16:57;;;;;;;;;;;;;;;;;;5065902;28;20395;-64
2023/06/17 08:19:23;;;;;;;;;;;;;;;;;;5061632;28;19917;-65
2023/06/17 08:21:50;;;;;;;;;;;;;;;;;;5065971;28;19962;-65
2023/06/17 08:24:15;;;;;;;;;;;;;;;;;;5069764;28;19950;-64
2023/06/17 08:26:43;;;;;;;;;;;;;;;;;;5065150;28;19921;-64
2023/06/17 08:29:10;;;;;;;;;;;;;;;;;;5064066;28;20353;-64
2023/06/17 08:31:36;;;;;;;;;;;;;;;;;;5061266;28;19963;-64
2023/06/17 08:34:02;;;;;;;;;;;;;;;;;;5062355;28;19967;-63
2023/06/17 08:36:28;;;;;;;;;;;;;;;;;;5068457;28;19912;-63
2023/06/17 08:38:54;;;;;;;;;;;;;;;;;;5063470;28;19919;-64
2023/06/17 08:41:19;;;;;;;;;;;;;;;;;;5068790;28;20324;-63
2023/06/17 08:43:46;;;;;;;;;;;;;;;;;;5065560;28;20043;-63
2023/06/17 08:46:12;;;;;;;;;;;;;;;;;;5068647;28;20347;-63
2023/06/17 08:48:38;;;;;;;;;;;;;;;;;;5070652;28;19915;-62
2023/06/17 08:51:04;;;;;;;;;;;;;;;;;;5066460;28;19964;-63
2023/06/17 08:53:30;;;;;;;;;;;;;;;;;;5070715;28;19967;-63
2023/06/17 08:55:56;;;;;;;;;;;;;;;;;;5070102;28;20285;-63
2023/06/17 08:58:23;;;;;;;;;;;;;;;;;;5067542;28;19959;-63
2023/06/17 09:00:49;;;;;;;;;;;;;;;;;;5061583;28;20060;-63
2023/06/17 09:03:15;;;;;;;;;;;;;;;;;;5063315;28;19923;-62
2023/06/17 09:05:41;;;;;;;;;;;;;;;;;;5067882;28;19916;-63
2023/06/17 09:08:07;;;;;;;;;;;;;;;;;;5066391;28;19916;-62
2023/06/17 09:10:32;;;;;;;;;;;;;;;;;;5049502;28;19913;-63
2023/06/17 09:12:59;;;;;;;;;;;;;;;;;;5067906;28;19913;-63
2023/06/17 09:15:25;;;;;;;;;;;;;;;;;;5071572;28;19947;-63
2023/06/17 09:17:53;;;;;;;;;;;;;;;;;;5073732;28;20017;-63
2023/06/17 09:20:19;;;;;;;;;;;;;;;;;;5073272;28;19912;-62
2023/06/17 09:22:45;;;;;;;;;;;;;;;;;;5066321;28;20001;-62
2023/06/17 09:25:14;;;;;;;;;;;;;;;;;;5069488;28;19962;-63
2023/06/17 09:27:40;;;;;;;;;;;;;;;;;;5073829;28;20289;-61
2023/06/17 09:30:14;;;;;;;;;;;;;;;;;;5064755;28;19916;-61
2023/06/17 09:32:40;;;;;;;;;;;;;;;;;;5068496;28;19912;-62
2023/06/17 09:35:06;;;;;;;;;;;;;;;;;;5071472;28;19913;-60
2023/06/17 09:37:32;;;;;;;;;;;;;;;;;;5068413;28;19927;-63
2023/06/17 09:39:58;;;;;;;;;;;;;;;;;;5069177;28;20003;-62
2023/06/17 09:42:24;;;;;;;;;;;;;;;;;;5067967;28;20254;-61
2023/06/17 09:44:50;;;;;;;;;;;;;;;;;;5063305;28;19920;-63
2023/06/17 09:47:17;;;;;;;;;;;;;;;;;;5069810;28;19987;-62
2023/06/17 09:49:45;;;;;;;;;;;;;;;;;;5061709;28;19913;-62
2023/06/17 09:52:11;;;;;;;;;;;;;;;;;;5070132;28;19927;-62
2023/06/17 09:54:37;;;;;;;;;;;;;;;;;;5067394;28;20406;-62
2023/06/17 09:57:03;;;;;;;;;;;;;;;;;;5069519;28;19919;-62
2023/06/17 09:59:30;;;;;;;;;;;;;;;;;;5069026;28;21710;-62
2023/06/17 10:01:55;;;;;;;;;;;;;;;;;;5070704;28;19946;-60
2023/06/17 10:04:21;;;;;;;;;;;;;;;;;;5078546;28;19962;-60
2023/06/17 10:06:47;;;;;;;;;;;;;;;;;;5068106;28;20320;-62
2023/06/17 10:09:13;;;;;;;;;;;;;;;;;;5073704;28;19913;-60
2023/06/17 10:11:39;;;;;;;;;;;;;;;;;;5073344;28;19919;-62
2023/06/17 10:14:05;;;;;;;;;;;;;;;;;;5073390;28;19912;-62
2023/06/17 10:16:31;;;;;;;;;;;;;;;;;;5071042;28;19924;-62
2023/06/17 10:18:57;;;;;;;;;;;;;;;;;;5071129;28;19917;-62
2023/06/17 10:21:23;;;;;;;;;;;;;;;;;;5071944;28;19912;-62
2023/06/17 10:23:49;;;;;;;;;;;;;;;;;;5073092;28;19948;-60
2023/06/17 10:26:15;;;;;;;;;;;;;;;;;;5076950;28;19977;-62
2023/06/17 10:28:41;;;;;;;;;;;;;;;;;;5075627;28;19963;-62
2023/06/17 10:31:07;;;;;;;;;;;;;;;;;;5072394;28;19930;-62
2023/06/17 10:33:33;;;;;;;;;;;;;;;;;;5068937;28;19999;-63
2023/06/17 10:35:59;;;;;;;;;;;;;;;;;;5070289;28;19955;-62
2023/06/17 10:38:25;;;;;;;;;;;;;;;;;;5072088;28;19956;-62
2023/06/17 10:40:51;;;;;;;;;;;;;;;;;;5068869;28;19961;-62
2023/06/17 10:43:18;;;;;;;;;;;;;;;;;;5070603;28;19916;-62
2023/06/17 10:45:43;;;;;;;;;;;;;;;;;;5072814;28;19912;-59
2023/06/17 10:48:09;;;;;;;;;;;;;;;;;;5071566;28;20085;-62
2023/06/17 10:50:35;;;;;;;;;;;;;;;;;;5072187;28;19917;-62
2023/06/17 10:53:02;;;;;;;;;;;;;;;;;;5070289;28;19922;-63
2023/06/17 10:55:28;;;;;;;;;;;;;;;;;;5060843;28;19921;-62
2023/06/17 10:57:54;;;;;;;;;;;;;;;;;;5068895;28;19959;-62
2023/06/17 11:00:20;;;;;;;;;;;;;;;;;;5069187;28;19970;-62
2023/06/17 11:02:47;;;;;;;;;;;;;;;;;;5069389;28;20010;-62
2023/06/17 11:05:13;;;;;;;;;;;;;;;;;;5061045;28;19931;-62
2023/06/17 11:07:39;;;;;;;;;;;;;;;;;;5066060;28;19912;-62
2023/06/17 11:10:05;;;;;;;;;;;;;;;;;;5054752;28;19945;-62
2023/06/17 11:12:34;;;;;;;;;;;;;;;;;;5067603;28;19917;-62
2023/06/17 11:15:03;;;;;;;;;;;;;;;;;;5064380;28;20002;-62
2023/06/17 11:17:29;;;;;;;;;;;;;;;;;;5060935;28;19932;-62
2023/06/17 11:19:55;;;;;;;;;;;;;;;;;;5066030;28;19948;-62
2023/06/17 11:22:21;;;;;;;;;;;;;;;;;;5066444;28;19916;-61
2023/06/17 11:24:47;;;;;;;;;;;;;;;;;;5067111;28;19948;-61
2023/06/17 11:27:13;;;;;;;;;;;;;;;;;;5070687;28;19908;-64
2023/06/17 11:29:39;;;;;;;;;;;;;;;;;;5044117;28;19915;-64
2023/06/17 11:32:04;;;;;;;;;;;;;;;;;;5067494;28;20430;-65
2023/06/17 11:34:33;;;;;;;;;;;;;;;;;;5070008;28;19916;-66
2023/06/17 11:37:00;;;;;;;;;;;;;;;;;;5071769;28;19920;-65
2023/06/17 11:39:26;;;;;;;;;;;;;;;;;;5073490;28;19916;-65
2023/06/17 11:41:52;;;;;;;;;;;;;;;;;;5062761;28;19955;-65
2023/06/17 11:44:18;;;;;;;;;;;;;;;;;;5065409;28;20021;-65
2023/06/17 11:46:44;;;;;;;;;;;;;;;;;;5070919;28;19913;-64
2023/06/17 11:49:10;;;;;;;;;;;;;;;;;;5063888;28;19916;-64
2023/06/17 11:51:36;;;;;;;;;;;;;;;;;;5070396;28;20004;-65
2023/06/17 11:54:02;;;;;;;;;;;;;;;;;;5051079;28;19913;-66
2023/06/17 11:56:28;;;;;;;;;;;;;;;;;;5066990;28;20017;-65
2023/06/17 11:58:54;;;;;;;;;;;;;;;;;;5069982;28;20007;-65
2023/06/17 12:01:20;;;;;;;;;;;;;;;;;;5069686;28;19943;-65
2023/06/17 12:03:46;;;;;;;;;;;;;;;;;;5070888;28;19976;-65
2023/06/17 12:06:11;;;;;;;;;;;;;;;;;;5068281;28;20967;-65
2023/06/17 12:08:37;;;;;;;;;;;;;;;;;;5068256;28;19919;-65
2023/06/17 12:11:03;;;;;;;;;;;;;;;;;;5060818;28;19908;-65
2023/06/17 12:13:29;;;;;;;;;;;;;;;;;;5057177;28;19917;-65
2023/06/17 12:15:55;;;;;;;;;;;;;;;;;;5075945;28;20001;-65
2023/06/17 12:18:21;;;;;;;;;;;;;;;;;;5068000;28;20332;-65
2023/06/17 12:20:48;;;;;;;;;;;;;;;;;;5070757;28;19999;-64
2023/06/17 12:23:14;;;;;;;;;;;;;;;;;;5065130;28;20333;-65
2023/06/17 12:25:40;;;;;;;;;;;;;;;;;;5066995;28;20029;-65
2023/06/17 12:28:06;;;;;;;;;;;;;;;;;;5071191;28;20003;-64
2023/06/17 12:30:33;;;;;;;;;;;;;;;;;;5067541;28;20003;-65
2023/06/17 12:32:59;;;;;;;;;;;;;;;;;;5051624;28;19919;-65
2023/06/17 12:35:25;;;;;;;;;;;;;;;;;;5065305;28;19909;-64
2023/06/17 12:37:51;;;;;;;;;;;;;;;;;;5065971;28;20011;-65
2023/06/17 12:40:17;;;;;;;;;;;;;;;;;;5069466;28;19982;-65
2023/06/17 12:42:43;;;;;;;;;;;;;;;;;;5069798;28;19944;-65
2023/06/17 12:45:09;;;;;;;;;;;;;;;;;;5070459;28;19916;-65
2023/06/17 12:47:36;;;;;;;;;;;;;;;;;;5073112;28;19948;-65
2023/06/17 12:50:02;;;;;;;;;;;;;;;;;;5069440;28;19912;-64
2023/06/17 12:52:28;;;;;;;;;;;;;;;;;;5086598;28;20257;-63
2023/06/17 12:54:54;;;;;;;;;;;;;;;;;;5068401;28;19943;-63
2023/06/17 12:57:20;;;;;;;;;;;;;;;;;;5075808;28;19919;-63
2023/06/17 12:59:46;;;;;;;;;;;;;;;;;;5072742;28;19923;-63
2023/06/17 13:02:12;;;;;;;;;;;;;;;;;;5076197;28;19931;-62
2023/06/17 13:04:38;;;;;;;;;;;;;;;;;;5074553;28;20007;-63
2023/06/17 13:07:04;;;;;;;;;;;;;;;;;;5071964;28;20028;-63
2023/06/17 13:09:30;;;;;;;;;;;;;;;;;;5073460;28;19946;-64
2023/06/17 13:11:56;;;;;;;;;;;;;;;;;;5063986;28;19913;-64
2023/06/17 13:14:22;;;;;;;;;;;;;;;;;;5073576;28;19962;-64
2023/06/17 13:16:48;;;;;;;;;;;;;;;;;;5065583;28;19974;-63
2023/06/17 13:19:15;;;;;;;;;;;;;;;;;;5072532;28;19970;-64
2023/06/17 13:21:41;;;;;;;;;;;;;;;;;;5075457;28;19916;-64
2023/06/17 13:24:08;;;;;;;;;;;;;;;;;;5063877;28;20348;-64
2023/06/17 13:26:35;;;;;;;;;;;;;;;;;;5065445;28;20372;-64
2023/06/17 13:29:04;;;;;;;;;;;;;;;;;;5069171;28;19920;-64
2023/06/17 13:31:30;;;;;;;;;;;;;;;;;;5069638;28;19916;-64
2023/06/17 13:33:56;;;;;;;;;;;;;;;;;;5061756;28;20007;-65
2023/06/17 13:36:22;;;;;;;;;;;;;;;;;;5068758;28;19920;-64
2023/06/17 13:38:48;;;;;;;;;;;;;;;;;;5070829;28;19951;-64
2023/06/17 13:41:14;;;;;;;;;;;;;;;;;;5070217;28;19909;-64
2023/06/17 13:43:40;;;;;;;;;;;;;;;;;;5072726;28;20067;-62
2023/06/17 13:46:06;;;;;;;;;;;;;;;;;;5055881;28;20323;-64
2023/06/17 13:48:32;;;;;;;;;;;;;;;;;;5073729;28;19993;-64
2023/06/17 13:50:58;;;;;;;;;;;;;;;;;;5070319;28;19920;-64
2023/06/17 13:53:24;;;;;;;;;;;;;;;;;;5068471;28;19948;-64
2023/06/17 13:55:52;;;;;;;;;;;;;;;;;;5066925;28;19920;-64
2023/06/17 13:58:18;;;;;;;;;;;;;;;;;;5070885;28;19916;-63
2023/06/17 14:00:44;;;;;;;;;;;;;;;;;;5072428;28;19957;-63
2023/06/17 14:03:10;;;;;;;;;;;;;;;;;;5072332;28;20292;-63
2023/06/17 14:05:36;;;;;;;;;;;;;;;;;;5064845;28;19936;-63
2023/06/17 14:08:01;;;;;;;;;;;;;;;;;;5069953;28;19913;-63
2023/06/17 14:10:27;;;;;;;;;;;;;;;;;;5070576;28;19997;-63
2023/06/17 14:12:53;;;;;;;;;;;;;;;;;;5071285;28;20830;-63
2023/06/17 14:15:19;;;;;;;;;;;;;;;;;;5068549;28;19916;-63
2023/06/17 14:17:45;;;;;;;;;;;;;;;;;;5062499;28;19913;-63
2023/06/17 14:20:11;;;;;;;;;;;;;;;;;;5056414;28;20388;-63
2023/06/17 14:22:37;;;;;;;;;;;;;;;;;;5066352;28;20000;-63
2023/06/17 14:25:03;;;;;;;;;;;;;;;;;;5060602;28;20145;-63
2023/06/17 14:27:29;;;;;;;;;;;;;;;;;;5072212;28;20467;-63
2023/06/17 14:29:55;;;;;;;;;;;;;;;;;;5062706;28;19951;-60
2023/06/17 14:32:21;;;;;;;;;;;;;;;;;;5064059;28;19913;-60
2023/06/17 14:34:47;;;;;;;;;;;;;;;;;;5071786;28;19912;-59
2023/06/17 14:37:13;;;;;;;;;;;;;;;;;;5067583;28;19990;-63
2023/06/17 14:39:38;;;;;;;;;;;;;;;;;;5067153;28;19966;-63
2023/06/17 14:42:04;;;;;;;;;;;;;;;;;;5072305;28;19955;-63
2023/06/17 14:44:30;;;;;;;;;;;;;;;;;;5070817;28;20019;-63
2023/06/17 14:46:56;;;;;;;;;;;;;;;;;;5063938;28;19913;-63
2023/06/17 14:49:22;;;;;;;;;;;;;;;;;;5066119;28;20391;-63
2023/06/17 14:51:50;;;;;;;;;;;;;;;;;;5063689;28;20336;-63
2023/06/17 14:54:16;;;;;;;;;;;;;;;;;;5066356;28;20292;-62
2023/06/17 14:56:42;;;;;;;;;;;;;;;;;;5072133;28;20019;-62
2023/06/17 14:59:08;;;;;;;;;;;;;;;;;;5066921;28;19918;-62
2023/06/17 15:01:34;;;;;;;;;;;;;;;;;;5064398;28;19912;-62
2023/06/17 15:04:02;;;;;;;;;;;;;;;;;;5060933;28;19920;-62
2023/06/17 15:06:28;;;;;;;;;;;;;;;;;;5057333;28;19995;-62
2023/06/17 15:09:00;;;;;;;;;;;;;;;;;;5060124;28;20067;-62
2023/06/17 15:11:26;;;;;;;;;;;;;;;;;;5062676;28;19913;-62
2023/06/17 15:13:52;;;;;;;;;;;;;;;;;;5062748;28;20010;-62
2023/06/17 15:16:18;;;;;;;;;;;;;;;;;;5066476;28;20003;-62
2023/06/17 15:18:44;;;;;;;;;;;;;;;;;;5063966;28;19938;-62
2023/06/17 15:21:10;;;;;;;;;;;;;;;;;;5067021;28;20238;-62
2023/06/17 15:23:36;;;;;;;;;;;;;;;;;;5065488;28;19955;-63
2023/06/17 15:26:02;;;;;;;;;;;;;;;;;;5054184;28;20437;-62
2023/06/17 15:28:28;;;;;;;;;;;;;;;;;;5059939;28;19913;-62
2023/06/17 15:30:54;;;;;;;;;;;;;;;;;;5060273;28;19924;-62
2023/06/17 15:33:20;;;;;;;;;;;;;;;;;;5061517;28;20027;-63
2023/06/17 15:35:46;;;;;;;;;;;;;;;;;;5069934;28;19920;-62
2023/06/17 15:38:12;;;;;;;;;;;;;;;;;;5072116;28;19909;-62
2023/06/17 15:40:37;;;;;;;;;;;;;;;;;;5071383;28;20038;-62
2023/06/17 15:43:03;;;;;;;;;;;;;;;;;;5071876;28;19921;-62
2023/06/17 15:45:29;;;;;;;;;;;;;;;;;;5072026;28;20387;-63
2023/06/17 15:47:55;;;;;;;;;;;;;;;;;;5072010;28;19966;-62
2023/06/17 15:50:21;;;;;;;;;;;;;;;;;;5069511;28;20136;-62
2023/06/17 15:52:47;;;;;;;;;;;;;;;;;;5071660;28;19908;-62
2023/06/17 15:55:13;;;;;;;;;;;;;;;;;;5070938;28;19997;-62
2023/06/17 15:57:39;;;;;;;;;;;;;;;;;;5071504;28;20429;-62
2023/06/17 16:00:05;;;;;;;;;;;;;;;;;;5053728;28;19916;-62
2023/06/17 16:02:31;;;;;;;;;;;;;;;;;;5061920;28;19916;-62
2023/06/17 16:04:57;;;;;;;;;;;;;;;;;;5059414;28;20391;-62
2023/06/17 16:07:23;;;;;;;;;;;;;;;;;;5050897;28;19913;-62
2023/06/17 16:09:50;;;;;;;;;;;;;;;;;;5051668;28;19908;-62
2023/06/17 16:12:16;;;;;;;;;;;;;;;;;;5056705;28;19912;-62
2023/06/17 16:14:41;;;;;;;;;;;;;;;;;;5051467;28;19919;-62
2023/06/17 16:17:07;;;;;;;;;;;;;;;;;;5054173;28;20365;-62
2023/06/17 16:19:35;;;;;;;;;;;;;;;;;;5059861;28;19912;-62
2023/06/17 16:22:01;;;;;;;;;;;;;;;;;;5069922;28;19916;-62
2023/06/17 16:24:27;;;;;;;;;;;;;;;;;;5068166;28;19916;-62
2023/06/17 16:26:53;;;;;;;;;;;;;;;;;;5067212;28;19955;-62
2023/06/17 16:29:19;;;;;;;;;;;;;;;;;;5070687;28;20321;-62
2023/06/17 16:31:45;;;;;;;;;;;;;;;;;;5058301;28;19953;-62
2023/06/17 16:34:11;;;;;;;;;;;;;;;;;;5071229;28;19931;-62
2023/06/17 16:36:37;;;;;;;;;;;;;;;;;;5066348;28;19913;-62
2023/06/17 16:39:03;;;;;;;;;;;;;;;;;;5070532;28;20293;-62